Time;durP1;ratioP1;P1;durP2;ratioP2;P2;SDS_P1;SDS_P2;PMS_P1;PMS_P2;Temp;Humidity;BMP_temperature;BMP_pressure;BME280_temperature;BME280_humidity;BME280_pressure;Samples;Min_cycle;Max_cycle;Signal;HPM_P1;HPM_P2
2023/05/15 00:00:59;;;;;;;1999.90;999.90;;;;;;;10.79;100.00;97255.19;5051268;28;20072;-73
2023/05/15 00:03:26;;;;;;;1999.90;999.90;;;;;;;10.80;100.00;97259.53;5051127;28;20028;-73
2023/05/15 00:05:51;;;;;;;1999.90;999.90;;;;;;;10.77;100.00;97246.50;5051214;28;20425;-73
2023/05/15 00:08:17;;;;;;;1999.90;999.90;;;;;;;10.74;100.00;97245.19;5051117;28;20044;-73
2023/05/15 00:10:42;;;;;;;1999.90;999.90;;;;;;;10.73;100.00;97249.84;5050507;28;20060;-73
2023/05/15 00:13:07;;;;;;;1999.90;999.90;;;;;;;10.73;100.00;97247.13;5051147;28;20381;-73
2023/05/15 00:15:33;;;;;;;1999.90;999.90;;;;;;;10.60;100.00;97242.53;5031797;28;20130;-72
2023/05/15 00:17:58;;;;;;;1999.90;999.90;;;;;;;10.63;100.00;97246.56;5030733;28;20083;-73
2023/05/15 00:20:23;;;;;;;1999.90;999.90;;;;;;;10.63;100.00;97241.91;5031424;28;20108;-73
2023/05/15 00:22:49;;;;;;;1999.90;999.90;;;;;;;10.73;100.00;97240.84;5031118;28;20584;-73
2023/05/15 00:25:14;;;;;;;1999.90;999.90;;;;;;;10.78;100.00;97232.50;5031003;28;20037;-72
2023/05/15 00:27:39;;;;;;;1999.90;999.90;;;;;;;10.73;100.00;97235.38;5030891;28;20615;-73
2023/05/15 00:30:05;;;;;;;1999.90;999.90;;;;;;;10.77;100.00;97235.56;5031036;28;20029;-73
2023/05/15 00:32:31;;;;;;;1999.90;999.90;;;;;;;10.80;100.00;97234.94;5030745;28;20042;-74
2023/05/15 00:34:56;;;;;;;1999.90;999.90;;;;;;;10.77;100.00;97230.09;5030578;28;20398;-73
2023/05/15 00:37:22;;;;;;;1999.90;999.90;;;;;;;10.79;100.00;97225.91;5030697;28;20398;-73
2023/05/15 00:39:47;;;;;;;1999.90;999.90;;;;;;;10.77;100.00;97226.19;5039648;28;20067;-73
2023/05/15 00:42:15;;;;;;;1999.90;999.90;;;;;;;10.78;100.00;97227.03;5032753;28;20477;-73
2023/05/15 00:44:43;;;;;;;1999.90;999.90;;;;;;;10.76;100.00;97223.81;5050585;28;20508;-73
2023/05/15 00:47:10;;;;;;;1999.90;999.90;;;;;;;10.71;100.00;97226.69;5050560;28;20091;-72
2023/05/15 00:49:36;;;;;;;1999.90;999.90;;;;;;;10.77;100.00;97225.44;5034045;28;20102;-72
2023/05/15 00:52:03;;;;;;;1999.90;999.90;;;;;;;10.82;100.00;97225.28;5050534;28;20025;-73
2023/05/15 00:54:28;;;;;;;1999.90;999.90;;;;;;;10.84;100.00;97225.75;5050515;28;20025;-73
2023/05/15 00:56:58;;;;;;;1999.90;999.90;;;;;;;10.83;100.00;97226.09;5046423;28;20025;-72
2023/05/15 00:59:31;;;;;;;1999.90;999.90;;;;;;;10.88;100.00;97228.69;5030635;28;20037;-73
2023/05/15 01:01:56;;;;;;;1999.90;999.90;;;;;;;10.87;100.00;97225.13;5030371;28;20431;-73
2023/05/15 01:04:22;;;;;;;1999.90;999.90;;;;;;;10.86;100.00;97228.19;5030431;28;20116;-73
2023/05/15 01:06:48;;;;;;;1999.90;999.90;;;;;;;10.86;100.00;97229.00;5030395;28;20038;-73
2023/05/15 01:09:14;;;;;;;1999.90;999.90;;;;;;;10.87;100.00;97222.38;5030335;28;20028;-73
2023/05/15 01:11:41;;;;;;;1999.90;999.90;;;;;;;10.84;100.00;97235.91;5042086;28;20017;-73
2023/05/15 01:14:07;;;;;;;1999.90;999.90;;;;;;;10.75;100.00;97225.72;5049788;28;20036;-74
2023/05/15 01:16:34;;;;;;;1999.90;999.90;;;;;;;10.84;100.00;97224.97;5049449;28;20112;-73
2023/05/15 01:19:00;;;;;;;1999.90;999.90;;;;;;;10.87;100.00;97227.84;5048089;28;20515;-73
2023/05/15 01:21:37;;;;;;;1999.90;999.90;;;;;;;10.84;100.00;97224.97;5050239;28;20032;-73
2023/05/15 01:24:45;;;;;;;1999.90;999.90;;;;;;;10.84;100.00;97224.97;5052863;28;20037;-73
2023/05/15 01:27:38;;;;;;;1999.90;999.90;;;;;;;10.85;100.00;97224.66;5053806;28;20032;-73
2023/05/15 01:30:27;;;;;;;1999.90;999.90;;;;;;;10.75;100.00;97217.50;5054193;28;20037;-73
2023/05/15 01:33:11;;;;;;;1999.90;999.90;;;;;;;10.74;100.00;97226.84;5037957;28;20489;-73
2023/05/15 01:35:45;;;;;;;1999.90;999.90;;;;;;;10.70;100.00;97214.13;5047263;28;20030;-73
2023/05/15 01:38:31;;;;;;;1999.90;999.90;;;;;;;10.58;100.00;97216.63;5042601;28;20088;-73
2023/05/15 01:41:16;;;;;;;1999.90;999.90;;;;;;;10.60;100.00;97219.84;5054751;28;20041;-74
2023/05/15 01:43:44;;;;;;;1999.90;999.90;;;;;;;10.47;100.00;97210.59;5055652;28;20040;-73
2023/05/15 01:46:14;;;;;;;1999.90;999.90;;;;;;;10.57;100.00;97209.53;5054085;28;20032;-73
2023/05/15 01:48:43;;;;;;;1999.90;999.90;;;;;;;10.62;100.00;97212.94;5053722;28;20052;-74
2023/05/15 01:51:12;;;;;;;1999.90;999.90;;;;;;;10.60;100.00;97215.19;5053976;28;20033;-72
2023/05/15 01:53:38;;;;;;;1999.90;999.90;;;;;;;10.61;100.00;97221.47;5053716;28;20401;-73
2023/05/15 01:56:06;;;;;;;1999.90;999.90;;;;;;;10.59;100.00;97220.97;5053572;28;20040;-72
2023/05/15 01:58:33;;;;;;;1999.90;999.90;;;;;;;10.59;100.00;97216.31;5053587;28;20102;-73
2023/05/15 02:01:00;;;;;;;1999.90;999.90;;;;;;;10.55;100.00;97211.78;5035880;28;20028;-73
2023/05/15 02:03:25;;;;;;;1999.90;999.90;;;;;;;10.55;100.00;97215.34;5053074;28;20170;-72
2023/05/15 02:05:52;;;;;;;1999.90;999.90;;;;;;;10.49;100.00;97219.31;5051815;28;20048;-73
2023/05/15 02:08:19;;;;;;;1999.90;999.90;;;;;;;10.53;100.00;97214.00;5041436;28;20028;-72
2023/05/15 02:10:45;;;;;;;1999.90;999.90;;;;;;;10.60;100.00;97226.13;5053160;28;20064;-72
2023/05/15 02:13:12;;;;;;;1999.90;999.90;;;;;;;10.57;100.00;97226.75;5041292;28;20036;-73
2023/05/15 02:15:37;;;;;;;1999.90;999.90;;;;;;;10.51;100.00;97219.00;5032939;28;20033;-73
2023/05/15 02:18:03;;;;;;;1999.90;999.90;;;;;;;10.51;100.00;97225.28;5033164;28;20049;-73
2023/05/15 02:20:28;;;;;;;1999.90;999.90;;;;;;;10.46;100.00;97217.19;5033412;28;20041;-73
2023/05/15 02:22:53;;;;;;;1999.90;999.90;;;;;;;10.50;100.00;97228.31;5032921;28;20152;-73
2023/05/15 02:25:33;;;;;;;1999.90;999.90;;;;;;;10.51;100.00;97227.19;5044041;28;20052;-72
2023/05/15 02:28:00;;;;;;;1999.90;999.90;;;;;;;10.45;100.00;97232.00;5052667;28;20021;-72
2023/05/15 02:30:54;;;;;;;1999.90;999.90;;;;;;;10.53;100.00;97223.03;5052765;28;20024;-73
2023/05/15 02:34:05;;;;;;;1999.90;999.90;;;;;;;10.47;100.00;97218.00;5029685;28;20560;-73
2023/05/15 02:36:35;;;;;;;1999.90;999.90;;;;;;;10.48;100.00;97234.09;5032861;28;20041;-74
2023/05/15 02:39:01;;;;;;;1999.90;999.90;;;;;;;10.44;100.00;97221.34;5030824;28;20026;-73
2023/05/15 02:41:27;;;;;;;1999.90;999.90;;;;;;;10.28;100.00;97215.47;5013061;28;20034;-74
2023/05/15 02:43:54;;;;;;;1999.90;999.90;;;;;;;10.35;100.00;97218.56;5012752;28;20032;-77
2023/05/15 02:46:20;;;;;;;1999.90;999.90;;;;;;;10.29;100.00;97219.81;5012733;28;20507;-73
2023/05/15 02:48:47;;;;;;;1999.90;999.90;;;;;;;10.20;100.00;97211.56;5011589;28;20025;-74
2023/05/15 02:51:12;;;;;;;1999.90;999.90;;;;;;;10.16;100.00;97226.16;5013143;28;20061;-73
2023/05/15 02:53:39;;;;;;;1999.90;999.90;;;;;;;10.16;100.00;97221.50;5012877;28;20057;-73
2023/05/15 02:56:05;;;;;;;1999.90;999.90;;;;;;;10.08;100.00;97221.41;5016103;28;20039;-73
2023/05/15 02:58:30;;;;;;;1999.90;999.90;;;;;;;10.08;100.00;97216.75;5047863;28;20528;-74
2023/05/15 03:00:56;;;;;;;1999.90;999.90;;;;;;;10.20;100.00;97216.22;5058828;28;20466;-75
2023/05/15 03:03:21;;;;;;;1999.90;999.90;;;;;;;10.20;100.00;97214.31;5056234;28;20464;-78
2023/05/15 03:05:46;;;;;;;1999.90;999.90;;;;;;;10.21;100.00;97217.84;5056012;28;20089;-74
2023/05/15 03:08:12;;;;;;;1999.90;999.90;;;;;;;10.08;100.00;97219.50;5056295;28;20517;-74
2023/05/15 03:10:37;;;;;;;1999.90;999.90;;;;;;;10.08;100.00;97215.94;5056402;28;21475;-74
2023/05/15 03:13:02;;;;;;;1999.90;999.90;;;;;;;10.18;100.00;97207.50;5054889;28;20051;-76
2023/05/15 03:15:28;;;;;;;1999.90;999.90;;;;;;;10.27;100.00;97216.59;5054304;28;20052;-73
2023/05/15 03:17:53;;;;;;;1999.90;999.90;;;;;;;10.27;100.00;97210.31;5037253;28;20032;-74
2023/05/15 03:20:18;;;;;;;1999.90;999.90;;;;;;;10.29;100.00;97202.63;5039616;28;20116;-73
2023/05/15 03:22:43;;;;;;;1999.90;999.90;;;;;;;10.37;100.00;97205.41;5031164;28;20037;-73
2023/05/15 03:25:10;;;;;;;1999.90;999.90;;;;;;;10.38;100.00;97207.00;5031685;28;20147;-73
2023/05/15 03:27:35;;;;;;;1999.90;999.90;;;;;;;10.32;100.00;97204.72;5031774;28;20026;-74
2023/05/15 03:30:01;;;;;;;1999.90;999.90;;;;;;;10.32;100.00;97215.66;5031699;28;20398;-73
2023/05/15 03:32:26;;;;;;;1999.90;999.90;;;;;;;10.29;100.00;97210.81;5031763;28;20024;-73
2023/05/15 03:34:51;;;;;;;1999.90;999.90;;;;;;;10.34;100.00;97214.22;5031962;28;20067;-73
2023/05/15 03:37:17;;;;;;;1999.90;999.90;;;;;;;10.38;100.00;97207.00;5031464;28;20025;-72
2023/05/15 03:39:42;;;;;;;1999.90;999.90;;;;;;;10.31;100.00;97198.44;5031781;28;20064;-73
2023/05/15 03:42:07;;;;;;;1999.90;999.90;;;;;;;10.32;100.00;97191.88;5032900;28;20029;-73
2023/05/15 03:44:33;;;;;;;1999.90;999.90;;;;;;;10.19;100.00;97199.03;5036275;28;20052;-77
2023/05/15 03:46:58;;;;;;;1999.90;999.90;;;;;;;10.17;100.00;97204.00;5031551;28;20449;-73
2023/05/15 03:49:24;;;;;;;1999.90;999.90;;;;;;;10.35;100.00;97206.84;5031760;28;20027;-73
2023/05/15 03:51:50;;;;;;;1999.90;999.90;;;;;;;10.35;100.00;97195.91;5032140;28;20116;-73
2023/05/15 03:54:16;;;;;;;1999.90;999.90;;;;;;;10.33;100.00;97198.97;5031689;28;20021;-73
2023/05/15 03:56:41;;;;;;;1999.90;999.90;;;;;;;10.35;100.00;97191.25;5031700;28;20031;-73
2023/05/15 03:59:06;;;;;;;1999.90;999.90;;;;;;;10.47;100.00;97204.31;5031361;28;20482;-73
2023/05/15 04:01:31;;;;;;;1999.90;999.90;;;;;;;10.53;100.00;97200.34;5031624;28;20029;-73
2023/05/15 04:03:57;;;;;;;1999.90;999.90;;;;;;;10.58;100.00;97194.75;5031465;28;20502;-73
2023/05/15 04:06:24;;;;;;;1999.90;999.90;;;;;;;10.62;100.00;97193.78;5031505;28;20478;-73
2023/05/15 04:08:49;;;;;;;1999.90;999.90;;;;;;;10.63;100.00;97195.41;5031298;28;20029;-73
2023/05/15 04:11:15;;;;;;;1999.90;999.90;;;;;;;10.70;100.00;97192.25;5031332;28;20066;-73
2023/05/15 04:13:40;;;;;;;1999.90;999.90;;;;;;;10.64;100.00;97199.78;5031102;28;20033;-73
2023/05/15 04:16:06;;;;;;;1999.90;999.90;;;;;;;10.60;100.00;97193.31;5033076;28;20112;-74
2023/05/15 04:18:31;;;;;;;1999.90;999.90;;;;;;;10.67;100.00;97209.28;5033341;28;20032;-73
2023/05/15 04:20:57;;;;;;;1999.90;999.90;;;;;;;10.61;100.00;97200.41;5032759;28;20025;-73
2023/05/15 04:23:22;;;;;;;1999.90;999.90;;;;;;;10.62;100.00;97202.00;5030954;28;20648;-73
2023/05/15 04:25:48;;;;;;;1999.90;999.90;;;;;;;10.56;100.00;97199.72;5031049;28;20033;-73
2023/05/15 04:28:13;;;;;;;1999.90;999.90;;;;;;;10.65;100.00;97206.84;5031326;28;20025;-73
2023/05/15 04:30:39;;;;;;;1999.90;999.90;;;;;;;10.81;100.00;97209.97;5031226;28;20368;-73
2023/05/15 04:33:04;;;;;;;1999.90;999.90;;;;;;;10.79;100.00;97200.47;5030860;28;20437;-73
2023/05/15 04:35:30;;;;;;;1999.90;999.90;;;;;;;10.81;100.00;97200.97;5030882;28;20112;-74
2023/05/15 04:37:55;;;;;;;1999.90;999.90;;;;;;;10.87;100.00;97203.25;5028048;28;20029;-73
2023/05/15 04:40:21;;;;;;;1999.90;999.90;;;;;;;10.84;100.00;97197.63;5018882;28;20053;-73
2023/05/15 04:42:46;;;;;;;1999.90;999.90;;;;;;;10.91;100.00;97208.88;5030202;28;20026;-73
2023/05/15 04:45:11;;;;;;;1999.90;999.90;;;;;;;10.63;100.00;97205.53;5026098;28;20043;-73
2023/05/15 04:47:37;;;;;;;1999.90;999.90;;;;;;;10.62;100.00;97212.13;5030191;28;20029;-74
2023/05/15 04:50:02;;;;;;;1999.90;999.90;;;;;;;10.56;100.00;97208.72;5030259;28;20079;-74
2023/05/15 04:52:28;;;;;;;1999.90;999.90;;;;;;;10.86;100.00;97200.84;5030585;28;20025;-73
2023/05/15 04:54:54;;;;;;;1999.90;999.90;;;;;;;11.01;100.00;97198.47;5030337;28;20471;-73
2023/05/15 04:57:20;;;;;;;1999.90;999.90;;;;;;;11.20;100.00;97190.81;5012001;28;20044;-73
2023/05/15 04:59:45;;;;;;;1999.90;999.90;;;;;;;11.33;100.00;97193.75;5030067;28;20260;-73
2023/05/15 05:02:11;;;;;;;1999.90;999.90;;;;;;;11.72;100.00;97191.72;5030246;28;20414;-73
2023/05/15 05:04:36;;;;;;;1999.90;999.90;;;;;;;12.05;100.00;97197.56;5030045;28;20026;-73
2023/05/15 05:07:04;;;;;;;1999.90;999.90;;;;;;;12.26;100.00;97201.22;5029854;28;20033;-73
2023/05/15 05:09:30;;;;;;;1999.90;999.90;;;;;;;12.21;100.00;97209.63;5030021;28;20029;-73
2023/05/15 05:11:58;;;;;;;1999.90;999.90;;;;;;;12.09;100.00;97206.72;5029958;28;20419;-73
2023/05/15 05:14:23;;;;;;;1999.90;999.90;;;;;;;12.04;100.00;97206.91;5029942;28;20026;-73
2023/05/15 05:16:48;;;;;;;1999.90;999.90;;;;;;;11.98;100.00;97212.84;5029748;28;20029;-72
2023/05/15 05:19:15;;;;;;;1999.90;999.90;;;;;;;12.12;100.00;97210.78;5029780;28;20030;-73
2023/05/15 05:21:43;;;;;;;1999.90;999.90;;;;;;;12.16;100.00;97211.72;5030087;28;20028;-73
2023/05/15 05:24:09;;;;;;;1999.90;999.90;;;;;;;12.07;100.00;97224.63;5029676;28;20029;-73
2023/05/15 05:26:34;;;;;;;1999.90;999.90;;;;;;;12.12;100.00;97221.75;5029618;28;20025;-73
2023/05/15 05:28:59;;;;;;;1999.90;999.90;;;;;;;12.04;100.00;97217.03;5029717;28;20030;-72
2023/05/15 05:31:25;;;;;;;1999.90;999.90;;;;;;;12.04;100.00;97220.59;5029884;28;20124;-72
2023/05/15 05:33:51;;;;;;;1999.90;999.90;;;;;;;11.96;100.00;97218.69;5015409;28;20399;-72
2023/05/15 05:36:16;;;;;;;1999.90;999.90;;;;;;;11.82;100.00;97213.34;5009904;28;20041;-72
2023/05/15 05:38:42;;;;;;;1999.90;999.90;;;;;;;11.92;100.00;97205.94;5009769;28;20030;-72
2023/05/15 05:41:07;;;;;;;1999.90;999.90;;;;;;;12.13;100.00;97212.38;5009638;28;20045;-72
2023/05/15 05:43:33;;;;;;;1999.90;999.90;;;;;;;12.30;100.00;97206.88;5009849;28;20101;-71
2023/05/15 05:45:58;;;;;;;1999.90;999.90;;;;;;;12.25;100.00;97209.78;4992125;28;20612;-73
2023/05/15 05:48:25;;;;;;;1999.90;999.90;;;;;;;12.42;100.00;97204.28;5009332;28;20057;-71
2023/05/15 05:50:51;;;;;;;1999.90;999.90;;;;;;;12.70;100.00;97219.22;5009046;28;20105;-71
2023/05/15 05:53:16;;;;;;;1999.90;999.90;;;;;;;12.96;100.00;97218.34;5013250;28;20453;-71
2023/05/15 05:55:41;;;;;;;1999.90;999.90;;;;;;;13.14;100.00;97208.91;5009881;28;20021;-71
2023/05/15 05:58:07;;;;;;;1999.90;999.90;;;;;;;13.33;100.00;97201.06;5009595;28;20045;-72
2023/05/15 06:00:32;;;;;;;1999.90;999.90;;;;;;;13.40;100.00;97206.84;5009717;28;20026;-72
2023/05/15 06:02:58;;;;;;;1999.90;999.90;;;;;;;13.60;100.00;97210.75;5009616;28;20376;-73
2023/05/15 06:05:25;;;;;;;1999.90;999.90;;;;;;;13.87;100.00;97208.31;5008728;28;20021;-75
2023/05/15 06:07:51;;;;;;;1999.90;999.90;;;;;;;13.73;100.00;97210.50;5009131;28;20029;-71
2023/05/15 06:10:17;;;;;;;1999.90;999.90;;;;;;;13.31;100.00;97203.34;5013663;28;20099;-70
2023/05/15 06:12:43;;;;;;;1999.90;999.90;;;;;;;13.39;100.00;97205.22;5031740;28;20026;-71
2023/05/15 06:15:09;;;;;;;1999.90;999.90;;;;;;;13.59;100.00;97209.97;5031665;28;20025;-71
2023/05/15 06:17:34;;;;;;;1999.90;999.90;;;;;;;13.66;100.00;97214.91;5022672;28;20072;-71
2023/05/15 06:20:00;;;;;;;1999.90;999.90;;;;;;;13.74;100.00;97212.13;5021382;28;20031;-72
2023/05/15 06:22:25;;;;;;;1999.90;999.90;;;;;;;13.70;100.00;97211.19;5022347;28;20026;-71
2023/05/15 06:24:50;;;;;;;1999.90;999.90;;;;;;;13.89;100.00;97208.78;4998160;28;20084;-71
2023/05/15 06:27:16;;;;;;;1999.90;999.90;;;;;;;13.95;100.00;97209.38;5015231;28;20025;-72
2023/05/15 06:29:41;;;;;;;1999.90;999.90;;;;;;;14.15;100.00;97216.84;5019203;28;20038;-71
2023/05/15 06:32:06;;;;;;;1999.90;999.90;;;;;;;14.20;100.00;97222.13;5028764;28;20028;-72
2023/05/15 06:34:32;;;;;;;1999.90;999.90;;;;;;;14.06;100.00;97221.59;5021440;28;20031;-72
2023/05/15 06:36:57;;;;;;;1999.90;999.90;;;;;;;13.95;100.00;97226.69;5021706;28;20018;-72
2023/05/15 06:39:22;;;;;;;1999.90;999.90;;;;;;;14.01;100.00;97209.97;5031224;28;20510;-72
2023/05/15 06:41:48;;;;;;;1999.90;999.90;;;;;;;13.86;100.00;97220.44;5031986;28;20055;-72
2023/05/15 06:44:13;;;;;;;1999.90;999.90;;;;;;;13.72;100.00;97219.88;5031182;28;20078;-72
2023/05/15 06:46:38;;;;;;;1999.90;999.90;;;;;;;14.04;100.00;97212.06;5031520;28;20112;-72
2023/05/15 06:49:04;;;;;;;1999.90;999.90;;;;;;;14.53;100.00;97216.69;5032559;28;20101;-72
2023/05/15 06:51:29;;;;;;;1999.90;999.90;;;;;;;14.78;100.00;97201.84;5031315;28;20052;-71
2023/05/15 06:53:55;;;;;;;1999.90;999.90;;;;;;;15.13;100.00;97196.72;5032812;28;20124;-71
2023/05/15 06:56:20;;;;;;;1999.90;999.90;;;;;;;15.30;100.00;97213.03;5031918;28;20038;-72
2023/05/15 06:58:46;;;;;;;1999.90;999.90;;;;;;;15.32;100.00;97210.72;5032375;28;20029;-71
2023/05/15 07:01:11;;;;;;;1999.90;999.90;;;;;;;14.96;100.00;97214.25;5032637;28;20022;-71
2023/05/15 07:03:37;;;;;;;1999.90;999.90;;;;;;;14.68;100.00;97220.75;5032636;28;20533;-71
2023/05/15 07:06:02;;;;;;;1999.90;999.90;;;;;;;14.37;100.00;97213.75;5032505;28;20022;-71
2023/05/15 07:08:28;;;;;;;1999.90;999.90;;;;;;;14.22;100.00;97221.81;5032430;28;20033;-71
2023/05/15 07:10:53;;;;;;;1999.90;999.90;;;;;;;14.06;100.00;97218.84;5032261;28;20030;-71
2023/05/15 07:13:22;;;;;;;1999.90;999.90;;;;;;;13.93;100.00;97225.41;5032575;28;20044;-71
2023/05/15 07:15:47;;;;;;;1999.90;999.90;;;;;;;13.79;100.00;97217.41;5032380;28;20029;-71
2023/05/15 07:18:13;;;;;;;1999.90;999.90;;;;;;;13.77;100.00;97213.41;5014607;28;20386;-72
2023/05/15 07:20:38;;;;;;;1999.90;999.90;;;;;;;13.78;100.00;97218.56;5032239;28;20064;-71
2023/05/15 07:23:04;;;;;;;1999.90;999.90;;;;;;;13.90;100.00;97215.91;5032015;28;20073;-71
2023/05/15 07:25:29;;;;;;;1999.90;999.90;;;;;;;13.84;100.00;97214.50;5032313;28;20099;-71
2023/05/15 07:27:55;;;;;;;1999.90;999.90;;;;;;;13.96;100.00;97208.25;5032188;28;20021;-71
2023/05/15 07:30:21;;;;;;;1999.90;999.90;;;;;;;14.22;100.00;97222.56;5032071;28;20386;-71
2023/05/15 07:32:46;;;;;;;1999.90;999.90;;;;;;;14.16;100.00;97220.41;5031922;28;20021;-72
2023/05/15 07:35:12;;;;;;;1999.90;999.90;;;;;;;14.17;100.00;97209.03;5032004;28;20031;-71
2023/05/15 07:37:37;;;;;;;1999.90;999.90;;;;;;;14.36;100.00;97227.84;5031772;28;20111;-72
2023/05/15 07:40:04;;;;;;;1999.90;999.90;;;;;;;14.39;100.00;97233.47;5042736;28;20072;-72
2023/05/15 07:42:29;;;;;;;1999.90;999.90;;;;;;;14.32;100.00;97232.38;5051485;28;20107;-73
2023/05/15 07:44:54;;;;;;;1999.90;999.90;;;;;;;14.34;100.00;97227.38;5051560;28;20482;-71
2023/05/15 07:47:20;;;;;;;1999.90;999.90;;;;;;;14.51;100.00;97231.91;5033531;28;20028;-71
2023/05/15 07:49:45;;;;;;;1999.90;999.90;;;;;;;14.36;100.00;97219.59;5051657;28;20142;-71
2023/05/15 07:52:12;;;;;;;1999.90;999.90;;;;;;;14.70;100.00;97218.44;5051415;28;20072;-71
2023/05/15 07:54:40;;;;;;;1999.90;999.90;;;;;;;15.05;100.00;97224.38;5051305;28;20094;-71
2023/05/15 07:57:05;;;;;;;1999.90;999.90;;;;;;;15.22;100.00;97235.19;5051782;28;20040;-71
2023/05/15 07:59:31;;;;;;;1999.90;999.90;;;;;;;15.40;100.00;97231.06;5051954;28;20032;-72
2023/05/15 08:01:56;;;;;;;1999.90;999.90;;;;;;;15.68;100.00;97240.28;5054563;28;20021;-72
2023/05/15 08:04:21;;;;;;;1999.90;999.90;;;;;;;15.42;100.00;97246.09;5033966;28;20040;-71
2023/05/15 08:06:48;;;;;;;1999.90;999.90;;;;;;;15.27;100.00;97257.00;5051099;28;20115;-72
2023/05/15 08:09:13;;;;;;;1999.90;999.90;;;;;;;14.71;100.00;97248.41;5051173;28;20393;-72
2023/05/15 08:11:38;;;;;;;1999.90;999.90;;;;;;;15.34;100.00;97262.75;5051040;28;20036;-71
2023/05/15 08:14:04;;;;;;;1999.90;999.90;;;;;;;15.53;100.00;97276.81;5051046;28;20064;-71
2023/05/15 08:16:29;;;;;;;1999.90;999.90;;;;;;;15.87;100.00;97273.59;5050976;28;20033;-72
2023/05/15 08:18:59;;;;;;;1999.90;999.90;;;;;;;16.00;100.00;97274.38;5051068;28;20028;-71
2023/05/15 08:21:25;;;;;;;1999.90;999.90;;;;;;;16.11;100.00;97275.50;5050956;28;20029;-71
2023/05/15 08:23:51;;;;;;;1999.90;999.90;;;;;;;16.17;100.00;97268.59;5050840;28;20051;-72
2023/05/15 08:26:16;;;;;;;1999.90;999.90;;;;;;;16.26;100.00;97263.72;5051329;28;20013;-71
2023/05/15 08:28:41;;;;;;;1999.90;999.90;;;;;;;16.58;100.00;97261.94;5050834;28;20028;-72
2023/05/15 08:31:07;;;;;;;1999.90;999.90;;;;;;;17.16;100.00;97254.06;5050826;28;20489;-71
2023/05/15 08:33:32;;;;;;;1999.90;999.90;;;;;;;17.54;100.00;97246.72;5050314;28;20070;-71
2023/05/15 08:35:57;;;;;;;1999.90;999.90;;;;;;;19.35;100.00;97245.06;5050825;28;20036;-71
2023/05/15 08:38:23;;;;;;;1999.90;999.90;;;;;;;21.88;96.12;97260.66;5050391;28;20418;-72
2023/05/15 08:40:51;;;;;;;1999.90;999.90;;;;;;;20.99;82.81;97286.81;5050458;28;20482;-72
2023/05/15 08:43:17;;;;;;;1999.90;999.90;;;;;;;19.89;88.04;97265.00;5050619;28;20529;-72
2023/05/15 08:45:43;;;;;;;1999.90;999.90;;;;;;;19.05;91.22;97254.03;5050516;28;20044;-71
2023/05/15 08:48:13;;;;;;;1999.90;999.90;;;;;;;19.08;90.39;97258.84;5050462;28;20037;-71
2023/05/15 08:50:39;;;;;;;1999.90;999.90;;;;;;;18.68;93.91;97252.91;5050394;28;20029;-71
2023/05/15 08:53:05;;;;;;;1999.90;999.90;;;;;;;18.22;96.08;97251.13;5050332;28;20027;-72
2023/05/15 08:55:30;;;;;;;1999.90;999.90;;;;;;;17.79;99.51;97260.41;5050546;28;20033;-71
2023/05/15 08:57:57;;;;;;;1999.90;999.90;;;;;;;17.76;99.12;97255.59;5050805;28;20105;-71
2023/05/15 09:00:22;;;;;;;1999.90;999.90;;;;;;;17.49;100.00;97266.38;5050429;28;20061;-71
2023/05/15 09:02:48;;;;;;;1999.90;999.90;;;;;;;18.16;100.00;97265.25;5050276;28;20119;-71
2023/05/15 09:05:13;;;;;;;1999.90;999.90;;;;;;;19.19;86.94;97273.72;5032172;28;20535;-71
2023/05/15 09:07:43;;;;;;;1999.90;999.90;;;;;;;21.29;72.23;97279.25;5050057;28;20047;-71
2023/05/15 09:10:09;;;;;;;1999.90;999.90;;;;;;;22.82;65.39;97273.66;5050114;28;20046;-71
2023/05/15 09:12:35;;;;;;;1999.90;999.90;;;;;;;21.80;67.27;97273.72;5050057;28;20363;-71
2023/05/15 09:15:11;;;;;;;1999.90;999.90;;;;;;;24.95;57.30;97285.72;5050082;28;20025;-71
2023/05/15 09:17:37;;;;;;;1999.90;999.90;;;;;;;25.70;52.52;97300.13;5050119;28;20473;-72
2023/05/15 09:20:07;;;;;;;1999.90;999.90;;;;;;;27.40;47.38;97294.44;5050050;28;20030;-72
2023/05/15 09:22:34;;;;;;;1999.90;999.90;;;;;;;27.83;44.58;97299.44;5050129;28;20025;-72
2023/05/15 09:25:01;;;;;;;1999.90;999.90;;;;;;;28.31;43.43;97308.34;5049978;28;20033;-71
2023/05/15 09:27:27;;;;;;;1999.90;999.90;;;;;;;26.31;48.28;97310.50;5033932;28;20033;-71
2023/05/15 09:29:55;;;;;;;1999.90;999.90;;;;;;;26.76;46.61;97316.84;5030023;28;20517;-71
2023/05/15 09:32:21;;;;;;;1999.90;999.90;;;;;;;27.53;43.50;97300.31;5030053;28;20076;-71
2023/05/15 09:34:46;;;;;;;1999.90;999.90;;;;;;;28.79;40.78;97304.28;5030208;28;20517;-71
2023/05/15 09:37:28;;;;;;;1999.90;999.90;;;;;;;26.92;41.73;97303.06;5029856;28;20056;-70
2023/05/15 09:39:54;;;;;;;1999.90;999.90;;;;;;;25.91;45.07;97288.75;5029693;28;20090;-72
2023/05/15 09:42:20;;;;;;;1999.90;999.90;;;;;;;25.12;47.49;97287.66;5030090;28;20049;-72
2023/05/15 09:44:45;;;;;;;1999.90;999.90;;;;;;;24.47;49.31;97283.44;5031605;28;20026;-72
2023/05/15 09:47:15;;;;;;;1999.90;999.90;;;;;;;25.30;48.44;97282.75;5033772;28;20072;-71
2023/05/15 09:49:43;;;;;;;1999.90;999.90;;;;;;;23.48;52.27;97276.25;5033820;28;20107;-71
2023/05/15 09:52:09;;;;;;;1999.90;999.90;;;;;;;24.30;49.22;97273.09;5033951;28;20033;-70
2023/05/15 09:54:36;;;;;;;1999.90;999.90;;;;;;;24.09;48.91;97269.50;5033660;28;20032;-72
2023/05/15 09:57:12;;;;;;;1999.90;999.90;;;;;;;24.35;47.06;97261.50;5033908;28;20064;-71
2023/05/15 09:59:45;;;;;;;1999.90;999.90;;;;;;;24.46;47.00;97256.66;5033343;28;20045;-71
2023/05/15 10:02:21;;;;;;;1999.90;999.90;;;;;;;26.26;43.51;97254.84;5033680;28;20028;-71
2023/05/15 10:04:53;;;;;;;1999.90;999.90;;;;;;;24.60;47.98;97243.84;5033568;28;20033;-71
2023/05/15 10:07:35;;;;;;;1999.90;999.90;;;;;;;25.12;45.50;97237.25;5033948;28;20026;-70
2023/05/15 10:10:03;;;;;;;1999.90;999.90;;;;;;;24.95;47.30;97212.94;5038075;28;20120;-72
2023/05/15 10:12:30;;;;;;;1999.90;999.90;;;;;;;25.64;45.09;97212.13;5035153;28;20198;-71
2023/05/15 10:14:57;;;;;;;1999.90;999.90;;;;;;;24.70;47.15;97198.25;5033245;28;20025;-72
2023/05/15 10:17:23;;;;;;;1999.90;999.90;;;;;;;25.01;46.15;97208.50;5033034;28;20120;-71
2023/05/15 10:19:50;;;;;;;1999.90;999.90;;;;;;;25.02;46.14;97201.72;5033087;28;20104;-71
2023/05/15 10:22:21;;;;;;;1999.90;999.90;;;;;;;25.34;46.41;97207.13;5033020;28;20032;-71
2023/05/15 10:24:50;;;;;;;1999.90;999.90;;;;;;;25.81;45.65;97206.34;5015077;28;20057;-71
2023/05/15 10:27:17;;;;;;;1999.90;999.90;;;;;;;26.25;44.08;97218.81;5033298;28;20112;-71
2023/05/15 10:29:43;;;;;;;1999.90;999.90;;;;;;;25.11;45.45;97223.66;5032977;28;20033;-71
2023/05/15 10:32:09;;;;;;;1999.90;999.90;;;;;;;23.99;47.41;97218.00;5032877;28;20108;-71
2023/05/15 10:34:35;;;;;;;1999.90;999.90;;;;;;;23.14;49.96;97220.75;5032913;28;20386;-72
2023/05/15 10:37:01;;;;;;;1999.90;999.90;;;;;;;22.83;52.13;97221.44;5032580;28;20033;-71
2023/05/15 10:39:27;;;;;;;1999.90;999.90;;;;;;;21.67;55.75;97222.31;5032762;28;20049;-71
2023/05/15 10:41:55;;;;;;;1999.90;999.90;;;;;;;22.32;53.72;97225.19;5032838;28;20026;-71
2023/05/15 10:44:22;;;;;;;1999.90;999.90;;;;;;;22.04;54.14;97235.34;5014976;28;20451;-71
2023/05/15 10:46:47;;;;;;;1999.90;999.90;;;;;;;21.85;55.89;97225.25;5032800;28;20021;-71